ESMX

Växjö Kronoberg Airport

Växjö, Sweden
METAR ESMX 271150Z 04007KT 010V070 CAVOK 18/08 Q1028
Observed Flight Rules
May-27 @ 11:50 UTC (15 minutes ago) Visual Flight Rules
Wind Visibility Clouds
40° at 7 knots 10,000+ meters
  • Clear skies
Temperatures Readings
Current 18°C / 64°F
Dewpoint 8°C / 46°F
Humidity 52%
Altimeter 30.35" Hg
Pressure 1028 hPa
Elevation 186
METAR ESMX 271150Z 04007KT 010V070 CAVOK 18/08 Q1028
Observed Flight Rules
May-27 @ 11:50 UTC
(15 minutes ago)
VFR
Wind Visibility
40° at 7 knots 10,000+ meters
Clouds
  • Clear skies
Temperature Dewpoint
18°C / 64°F 8°C / 46°F
Humidity Altimeter Pressure
52% 30.35" Hg 1028 hPa